Terminal Aerodrome Forecast
Issued by NWS

Home | Current Version | Previous Version | Text Only | Print | Product List | Glossary On
Versions: 1 2 3 4 5 6 7 8 9 10 11 12 13 14 15 16
364
FTUS42 TJSJ 172340
TAFJSJ
TAF
TJSJ 172340Z 1800/1824 11005KT P6SM FEW040 SCT060
     FM181400 10014G21KT P6SM VCSH SCT030 SCT050
     FM181600 10012KT P6SM VCTS SCT030CB BKN050
     FM182300 10006KT P6SM FEW030 SCT050=

USA.gov is the U.S. government's official web portal to all federal, state and local government web resources and services.